createdAt,value
2022-11-15T15:38:14.348Z,11.85
2022-11-15T15:40:41.562Z,11.50
2022-11-15T15:43:10.039Z,11.40
2022-11-15T15:45:40.116Z,11.73
2022-11-15T15:48:11.310Z,11.63
2022-11-15T15:50:38.372Z,11.68
2022-11-15T15:53:06.081Z,10.88
2022-11-15T15:55:33.130Z,10.82
2022-11-15T15:58:00.180Z,10.35
2022-11-15T16:00:27.353Z,9.23
2022-11-15T16:02:54.701Z,9.15
2022-11-15T16:05:22.898Z,8.68
2022-11-15T16:07:50.151Z,11.50
2022-11-15T16:10:23.865Z,8.57
2022-11-15T16:12:51.854Z,8.63
2022-11-15T16:15:20.125Z,8.13
2022-11-15T16:17:52.332Z,8.40
2022-11-15T16:20:25.386Z,8.63
2022-11-15T16:22:52.418Z,7.75
2022-11-15T16:25:19.488Z,7.90
2022-11-15T16:27:47.134Z,8.10
2022-11-15T16:30:19.350Z,8.30
2022-11-15T16:32:46.721Z,7.10
2022-11-15T16:35:15.870Z,7.30
2022-11-15T16:37:45.774Z,9.23
2022-11-15T16:40:25.848Z,7.32
2022-11-15T16:42:52.963Z,7.28
2022-11-15T16:45:20.099Z,7.78
2022-11-15T16:47:47.192Z,8.05
2022-11-15T16:50:24.723Z,8.25
2022-11-15T16:52:57.132Z,7.13
2022-11-15T16:55:27.747Z,7.03
2022-11-15T16:57:55.874Z,6.50
2022-11-15T17:00:22.904Z,6.40
2022-11-15T17:02:51.395Z,6.50
2022-11-15T17:05:21.685Z,5.68
2022-11-15T17:07:52.256Z,6.13
2022-11-15T17:10:19.688Z,5.78
2022-11-15T17:12:46.832Z,6.03
2022-11-15T17:15:14.297Z,6.18
2022-11-15T17:17:42.127Z,5.75
2022-11-15T17:20:19.240Z,6.15
2022-11-15T17:22:47.310Z,5.75
2022-11-15T17:25:15.020Z,5.63
2022-11-15T17:27:42.308Z,5.63
2022-11-15T17:30:12.349Z,5.37
2022-11-15T17:32:39.403Z,5.10
2022-11-15T17:35:15.084Z,4.70
2022-11-15T17:37:43.536Z,4.72
2022-11-15T17:40:10.994Z,5.53
2022-11-15T17:42:41.049Z,4.18
2022-11-15T17:45:10.445Z,5.30
2022-11-15T17:47:38.111Z,4.20
2022-11-15T17:50:05.553Z,4.60
2022-11-15T17:52:32.615Z,6.75
2022-11-15T17:54:59.645Z,6.22
2022-11-15T17:57:26.684Z,5.47
2022-11-15T17:59:53.793Z,5.00
2022-11-15T18:02:20.814Z,5.13
2022-11-15T18:04:47.879Z,5.00
2022-11-15T18:07:15.102Z,5.25
2022-11-15T18:09:43.907Z,4.57
2022-11-15T18:12:11.856Z,6.63
2022-11-15T18:14:39.327Z,5.68
2022-11-15T18:17:06.777Z,5.43
2022-11-15T18:19:34.594Z,7.18
2022-11-15T18:22:04.246Z,4.80
2022-11-15T18:24:34.558Z,4.80
2022-11-15T18:27:03.593Z,4.30
2022-11-15T18:29:30.886Z,4.03
2022-11-15T18:31:58.766Z,4.65
2022-11-15T18:34:32.037Z,4.22
2022-11-15T18:36:59.922Z,4.38
2022-11-15T18:39:26.958Z,4.25
2022-11-15T18:41:54.139Z,3.85
2022-11-15T18:44:21.310Z,4.07
2022-11-15T18:46:49.002Z,4.00
2022-11-15T18:49:16.959Z,7.10
2022-11-15T18:51:44.034Z,4.37
2022-11-15T18:54:13.246Z,5.10
2022-11-15T18:56:40.768Z,4.78
2022-11-15T18:59:08.646Z,4.40
2022-11-15T19:01:48.111Z,4.35
2022-11-15T19:04:20.312Z,5.40
2022-11-15T19:06:49.125Z,5.30
2022-11-15T19:09:18.033Z,6.07
2022-11-15T19:11:46.842Z,5.47
2022-11-15T19:14:16.222Z,6.40
2022-11-15T19:16:45.803Z,5.18
2022-11-15T19:19:15.211Z,6.10
2022-11-15T19:21:42.844Z,6.32
2022-11-15T19:24:12.880Z,6.37
2022-11-15T19:26:40.200Z,5.83
2022-11-15T19:29:10.258Z,5.47
2022-11-15T19:31:38.087Z,5.78
2022-11-15T19:34:06.259Z,6.03
2022-11-15T19:36:36.005Z,6.85
2022-11-15T19:39:08.233Z,7.05
2022-11-15T19:41:37.815Z,7.00
2022-11-15T19:44:06.134Z,8.30
2022-11-15T19:46:33.578Z,9.10
2022-11-15T19:49:01.011Z,8.38
2022-11-15T19:51:30.720Z,9.45
2022-11-15T19:54:01.289Z,7.85
2022-11-15T19:56:28.372Z,7.40
2022-11-15T19:58:56.437Z,10.30
2022-11-15T20:01:26.193Z,7.07
2022-11-15T20:03:55.087Z,5.97
2022-11-15T20:06:26.861Z,5.85
2022-11-15T20:08:54.033Z,5.53
2022-11-15T20:11:21.489Z,5.47
2022-11-15T20:13:49.084Z,5.18
2022-11-15T20:16:21.654Z,4.70
2022-11-15T20:18:50.311Z,4.60
2022-11-15T20:21:17.616Z,9.20
2022-11-15T20:23:45.039Z,7.90
2022-11-15T20:26:12.404Z,5.72
2022-11-15T20:28:40.564Z,6.00
2022-11-15T20:31:09.420Z,5.37
2022-11-15T20:33:36.741Z,5.57
2022-11-15T20:36:05.860Z,5.87
2022-11-15T20:38:34.507Z,5.25
2022-11-15T20:41:01.877Z,5.00
2022-11-15T20:43:29.225Z,5.53
2022-11-15T20:45:56.380Z,5.22
2022-11-15T20:48:23.484Z,5.10
2022-11-15T20:50:50.633Z,5.22
2022-11-15T20:53:20.064Z,4.78
2022-11-15T20:55:49.308Z,4.97
2022-11-15T20:58:17.135Z,4.88
2022-11-15T21:00:45.608Z,7.05
2022-11-15T21:03:14.007Z,6.63
2022-11-15T21:05:43.110Z,7.80
2022-11-15T21:08:11.891Z,8.40
2022-11-15T21:10:59.230Z,7.75
2022-11-15T21:13:26.691Z,8.10
2022-11-15T21:16:00.486Z,8.57
2022-11-15T21:18:27.510Z,8.65
2022-11-15T21:20:54.622Z,7.78
2022-11-15T21:23:21.705Z,7.25
2022-11-15T21:25:50.253Z,7.72
2022-11-15T21:28:17.957Z,7.32
2022-11-15T21:30:56.759Z,5.97
2022-11-15T21:33:27.181Z,6.28
2022-11-15T21:35:55.211Z,6.43
2022-11-15T21:38:27.847Z,6.10
2022-11-15T21:40:54.892Z,5.65
2022-11-15T21:43:22.022Z,6.07
2022-11-15T21:45:56.904Z,5.82
2022-11-15T21:48:23.979Z,5.43
2022-11-15T21:51:08.594Z,5.05
2022-11-15T21:53:35.874Z,5.27
2022-11-15T21:56:03.595Z,4.85
2022-11-15T21:58:31.684Z,5.13
2022-11-15T22:01:18.179Z,5.22
2022-11-15T22:03:45.727Z,6.47
2022-11-15T22:06:17.576Z,6.88
2022-11-15T22:08:46.050Z,6.78
2022-11-15T22:11:13.827Z,6.35
2022-11-15T22:13:41.007Z,6.75
2022-11-15T22:16:08.809Z,7.50
2022-11-15T22:18:36.854Z,6.72
2022-11-15T22:21:07.295Z,7.82
2022-11-15T22:23:35.056Z,7.50
2022-11-15T22:26:02.648Z,7.15
2022-11-15T22:28:30.402Z,7.72
2022-11-15T22:30:58.315Z,8.10
2022-11-15T22:33:29.986Z,8.00
2022-11-15T22:35:57.847Z,7.57
2022-11-15T22:38:25.870Z,22.15
2022-11-15T22:40:53.180Z,15.13
2022-11-15T22:43:22.128Z,13.32
2022-11-15T22:45:51.944Z,12.15
2022-11-15T22:48:20.902Z,12.55
2022-11-15T22:50:48.187Z,14.97
2022-11-15T22:53:15.296Z,14.77
2022-11-15T22:55:42.482Z,13.40
2022-11-15T22:58:10.229Z,14.20
2022-11-15T23:00:37.492Z,16.60
2022-11-15T23:03:04.698Z,16.10
2022-11-15T23:05:31.831Z,14.98
2022-11-15T23:07:59.004Z,14.38
2022-11-15T23:10:45.028Z,14.88
2022-11-15T23:13:16.694Z,11.90
2022-11-15T23:16:05.285Z,15.70
2022-11-15T23:18:37.801Z,13.75
2022-11-15T23:21:10.166Z,13.20
2022-11-15T23:23:37.481Z,11.45
2022-11-15T23:26:05.520Z,11.48
2022-11-15T23:28:34.176Z,10.75
2022-11-15T23:31:25.073Z,10.30
2022-11-15T23:33:58.820Z,10.80
2022-11-15T23:36:28.002Z,9.50
2022-11-15T23:38:55.397Z,10.00
2022-11-15T23:41:24.598Z,9.30
2022-11-15T23:43:52.240Z,10.30
2022-11-15T23:46:19.351Z,9.80
2022-11-15T23:48:46.895Z,9.60
2022-11-15T23:51:14.552Z,10.48
2022-11-15T23:53:41.847Z,10.10
2022-11-15T23:56:17.378Z,10.57
2022-11-15T23:58:45.642Z,9.23
